createdAt,value
2023-02-09T00:00:16.284Z,14.85
2023-02-09T00:03:21.677Z,15.60
2023-02-09T00:05:59.107Z,13.38
2023-02-09T00:08:28.309Z,16.45
2023-02-09T00:10:59.850Z,15.82
2023-02-09T00:13:31.823Z,17.10
2023-02-09T00:16:05.637Z,16.85
2023-02-09T00:18:36.020Z,18.60
2023-02-09T00:21:15.217Z,14.45
2023-02-09T00:23:45.487Z,16.42
2023-02-09T00:26:14.069Z,16.42
2023-02-09T00:28:53.305Z,18.23
2023-02-09T00:31:21.917Z,15.50
2023-02-09T00:34:24.221Z,17.35
2023-02-09T00:36:56.828Z,17.40
2023-02-09T00:39:28.039Z,12.90
2023-02-09T00:42:13.605Z,13.65
2023-02-09T00:44:49.872Z,17.17
2023-02-09T00:47:42.248Z,14.13
2023-02-09T00:50:13.892Z,17.63
2023-02-09T00:55:41.352Z,14.20
2023-02-09T00:58:12.269Z,12.65
2023-02-09T01:00:49.653Z,14.23
2023-02-09T01:03:18.058Z,13.65
2023-02-09T01:05:46.140Z,17.73
2023-02-09T01:08:19.157Z,15.68
2023-02-09T01:10:50.367Z,13.15
2023-02-09T01:13:28.109Z,17.45
2023-02-09T01:16:33.452Z,15.52
2023-02-09T01:19:28.653Z,13.43
2023-02-09T01:22:03.208Z,13.15
2023-02-09T01:24:43.314Z,12.95
2023-02-09T01:27:22.586Z,13.98
2023-02-09T01:29:59.939Z,10.07
2023-02-09T01:33:05.241Z,13.13
2023-02-09T01:35:53.910Z,11.43
2023-02-09T01:38:27.076Z,13.70
2023-02-09T01:41:01.071Z,7.85
2023-02-09T01:43:29.810Z,11.88
2023-02-09T01:46:00.147Z,11.20
2023-02-09T01:48:50.160Z,9.95
2023-02-09T01:51:25.902Z,8.02
2023-02-09T01:53:54.818Z,6.75
2023-02-09T01:57:04.172Z,10.75
2023-02-09T02:00:17.236Z,9.77
2023-02-09T02:03:07.097Z,7.15
2023-02-09T02:05:55.870Z,8.98
2023-02-09T02:08:54.982Z,10.13
2023-02-09T02:12:08.147Z,13.38
2023-02-09T02:18:43.783Z,15.13
2023-02-09T02:27:52.781Z,14.13
2023-02-09T02:30:45.114Z,12.80
2023-02-09T02:40:32.629Z,12.85
2023-02-09T02:43:42.752Z,12.70
2023-02-09T02:46:42.964Z,10.57
2023-02-09T03:08:00.366Z,12.88
2023-02-09T03:14:10.762Z,9.50
2023-02-09T03:19:50.348Z,10.88
2023-02-09T03:32:40.454Z,16.88
2023-02-09T09:23:54.630Z,19.00
2023-02-09T09:29:42.105Z,21.73
2023-02-09T09:35:48.525Z,38.17
2023-02-09T09:38:18.070Z,20.60
2023-02-09T09:40:56.428Z,29.75
2023-02-09T09:43:44.661Z,18.90
2023-02-09T09:46:17.913Z,19.83
2023-02-09T09:48:47.297Z,18.13
2023-02-09T09:51:26.636Z,21.35
2023-02-09T09:54:04.641Z,23.95
2023-02-09T09:56:33.960Z,18.90
2023-02-09T09:59:02.374Z,22.83
2023-02-09T10:01:32.653Z,19.35
2023-02-09T10:04:29.650Z,23.83
2023-02-09T10:07:01.943Z,18.38
2023-02-09T10:09:46.390Z,14.55
2023-02-09T10:12:35.148Z,20.13
2023-02-09T10:15:23.550Z,23.17
2023-02-09T10:17:52.646Z,22.23
2023-02-09T10:20:40.151Z,16.75
2023-02-09T10:23:18.171Z,23.52
2023-02-09T10:26:09.275Z,18.52
2023-02-09T10:28:40.499Z,20.90
2023-02-09T10:31:20.935Z,19.48
2023-02-09T10:34:18.899Z,16.63
2023-02-09T10:37:12.123Z,19.80
2023-02-09T10:39:40.103Z,23.58
2023-02-09T10:42:28.645Z,23.27
2023-02-09T10:44:58.057Z,19.25
2023-02-09T10:47:29.598Z,19.98
2023-02-09T10:50:34.705Z,17.83
2023-02-09T10:53:05.597Z,14.73
2023-02-09T10:56:10.302Z,19.33
2023-02-09T10:59:00.269Z,15.35
2023-02-09T11:01:43.129Z,19.05
2023-02-09T11:04:25.660Z,18.27
2023-02-09T11:07:13.698Z,20.55
2023-02-09T11:09:58.447Z,17.83
2023-02-09T11:12:34.784Z,15.90
2023-02-09T11:15:13.417Z,17.30
2023-02-09T11:21:23.467Z,13.90
2023-02-09T11:27:16.622Z,19.00
2023-02-09T11:30:22.643Z,17.17
2023-02-09T11:33:13.487Z,15.20
2023-02-09T11:35:41.304Z,17.03
2023-02-09T11:38:24.341Z,15.55
2023-02-09T11:41:21.179Z,14.15
2023-02-09T11:44:06.213Z,15.20
2023-02-09T11:46:40.880Z,16.23
2023-02-09T11:49:19.049Z,17.30
2023-02-09T11:51:51.965Z,15.60
2023-02-09T11:54:31.316Z,15.13
2023-02-09T11:57:07.059Z,13.68
2023-02-09T11:59:54.170Z,15.85
2023-02-09T12:02:26.840Z,14.13
2023-02-09T12:05:28.772Z,16.02
2023-02-09T12:08:08.890Z,12.75
2023-02-09T12:11:01.757Z,17.10
2023-02-09T12:13:34.074Z,12.20
2023-02-09T12:16:25.413Z,15.57
2023-02-09T12:19:14.763Z,17.33
2023-02-09T12:21:51.024Z,12.40
2023-02-09T12:24:44.780Z,15.90
2023-02-09T12:27:31.701Z,15.35
2023-02-09T12:30:18.479Z,10.88
2023-02-09T12:32:50.399Z,14.50
2023-02-09T12:35:45.096Z,15.80
2023-02-09T12:38:42.330Z,15.00
2023-02-09T12:41:21.686Z,13.65
2023-02-09T12:43:50.641Z,9.80
2023-02-09T12:46:31.269Z,13.30
2023-02-09T12:49:26.977Z,19.95
2023-02-09T12:51:57.034Z,13.48
2023-02-09T12:54:43.789Z,13.40
2023-02-09T12:57:24.026Z,19.40
2023-02-09T13:00:00.944Z,13.10
2023-02-09T13:02:40.825Z,13.50
2023-02-09T13:05:16.946Z,16.40
2023-02-09T13:07:52.957Z,16.73
2023-02-09T13:10:39.441Z,13.65
2023-02-09T13:13:37.189Z,14.15
2023-02-09T13:16:29.956Z,10.70
2023-02-09T13:19:21.692Z,11.55
2023-02-09T13:27:34.499Z,12.85
2023-02-09T13:30:03.712Z,13.65
2023-02-09T13:36:06.904Z,15.98
2023-02-09T13:38:36.948Z,10.98
2023-02-09T13:41:07.514Z,10.63
2023-02-09T13:43:48.478Z,10.40
2023-02-09T13:46:48.508Z,9.02
2023-02-09T13:49:24.817Z,12.43
2023-02-09T13:52:16.574Z,9.82
2023-02-09T13:57:41.038Z,13.80
2023-02-09T14:00:40.757Z,14.27
2023-02-09T14:03:57.425Z,10.80
2023-02-09T14:06:35.117Z,12.10
2023-02-09T14:09:06.266Z,11.88
2023-02-09T14:11:58.563Z,13.65
2023-02-09T14:14:55.708Z,12.85
2023-02-09T14:17:36.318Z,11.90
2023-02-09T14:20:05.293Z,12.53
2023-02-09T14:22:38.715Z,15.40
2023-02-09T14:25:41.701Z,13.70
2023-02-09T14:28:15.911Z,12.95
2023-02-09T14:30:51.872Z,12.63
2023-02-09T14:33:26.268Z,12.50
2023-02-09T14:36:01.164Z,10.73
2023-02-09T14:38:48.527Z,10.90
2023-02-09T14:41:33.054Z,10.75
2023-02-09T14:44:09.856Z,11.13
2023-02-09T14:47:00.638Z,11.85
2023-02-09T14:49:40.519Z,10.30
2023-02-09T14:52:14.952Z,12.20
2023-02-09T14:54:49.761Z,11.75
2023-02-09T14:57:21.490Z,11.68
2023-02-09T14:59:49.713Z,12.13
2023-02-09T15:02:21.801Z,12.75
2023-02-09T15:04:51.604Z,13.57
2023-02-09T15:07:21.482Z,12.05
2023-02-09T15:10:06.954Z,9.57
2023-02-09T15:12:46.017Z,10.85
2023-02-09T15:15:19.852Z,15.32
2023-02-09T15:17:58.768Z,14.23
2023-02-09T15:20:38.823Z,12.18
2023-02-09T15:23:07.512Z,11.13
2023-02-09T15:25:41.172Z,11.27
2023-02-09T15:28:13.162Z,11.65
2023-02-09T15:30:44.259Z,14.35
2023-02-09T15:35:58.081Z,14.15
2023-02-09T15:38:35.383Z,11.88
2023-02-09T15:41:28.992Z,11.05
2023-02-09T15:44:57.295Z,11.80
2023-02-09T15:47:44.816Z,16.45
2023-02-09T15:50:13.908Z,13.30
2023-02-09T15:52:47.155Z,17.88
2023-02-09T15:55:21.179Z,12.98
2023-02-09T15:57:54.825Z,13.18
2023-02-09T16:00:26.257Z,10.68
2023-02-09T16:05:22.781Z,12.75
2023-02-09T16:07:57.834Z,9.90
2023-02-09T16:10:33.582Z,12.30
2023-02-09T16:13:15.478Z,12.38
2023-02-09T16:16:07.995Z,10.55
2023-02-09T16:18:45.331Z,10.90
2023-02-09T16:21:23.592Z,10.77
2023-02-09T16:24:00.630Z,10.82
2023-02-09T16:26:30.297Z,12.45
2023-02-09T16:28:58.283Z,9.75
2023-02-09T16:31:30.930Z,10.02
2023-02-09T16:34:00.124Z,10.35
2023-02-09T16:36:30.377Z,10.95
2023-02-09T16:38:59.570Z,14.27
2023-02-09T16:41:51.171Z,9.32
2023-02-09T16:44:25.590Z,12.95
2023-02-09T16:46:57.267Z,15.38
2023-02-09T16:49:40.827Z,11.60
2023-02-09T16:52:31.630Z,15.65
2023-02-09T16:55:02.295Z,21.53
2023-02-09T16:57:31.284Z,18.40
2023-02-09T17:00:00.420Z,21.25
2023-02-09T17:02:45.768Z,17.50
2023-02-09T17:05:28.625Z,19.52
2023-02-09T17:08:03.924Z,19.58
2023-02-09T17:13:40.707Z,23.48
2023-02-09T17:16:24.485Z,21.80
2023-02-09T17:18:55.868Z,25.50
2023-02-09T17:21:44.405Z,22.98
2023-02-09T17:30:25.511Z,21.85
2023-02-09T17:58:09.284Z,21.60
2023-02-09T18:00:58.564Z,18.92
2023-02-09T18:12:23.797Z,19.45
2023-02-09T18:18:15.158Z,23.17
2023-02-09T18:21:12.322Z,20.52
2023-02-09T18:24:18.210Z,25.27
2023-02-09T18:29:48.237Z,19.98
2023-02-09T18:32:17.679Z,23.60
2023-02-09T18:34:46.553Z,18.90
2023-02-09T18:37:27.105Z,21.65
2023-02-09T18:39:56.223Z,18.83
2023-02-09T18:42:32.573Z,21.02
2023-02-09T18:45:00.410Z,16.38
2023-02-09T18:47:30.090Z,16.10
2023-02-09T18:50:04.172Z,18.10
2023-02-09T18:52:32.297Z,17.35
2023-02-09T18:55:09.409Z,21.33
2023-02-09T18:57:37.607Z,18.52
2023-02-09T19:00:06.972Z,19.77
2023-02-09T19:02:42.128Z,17.73
2023-02-09T19:05:11.552Z,15.48
2023-02-09T19:07:52.217Z,17.58
2023-02-09T19:10:23.190Z,16.83
2023-02-09T19:12:52.347Z,16.25
2023-02-09T19:15:30.105Z,15.60
2023-02-09T19:18:01.278Z,18.63
2023-02-09T19:20:32.062Z,16.55
2023-02-09T19:23:00.129Z,19.70
2023-02-09T19:25:31.027Z,17.83
2023-02-09T19:28:07.987Z,15.07
2023-02-09T19:30:48.109Z,33.00
2023-02-09T19:33:25.207Z,17.42
2023-02-09T19:36:11.681Z,13.25
2023-02-09T19:38:50.773Z,15.07
2023-02-09T19:41:56.693Z,15.43
2023-02-09T19:44:29.945Z,22.42
2023-02-09T19:47:00.800Z,19.42
2023-02-09T19:49:33.336Z,20.77
2023-02-09T19:52:08.528Z,19.48
2023-02-09T19:55:05.541Z,17.10
2023-02-09T19:58:20.225Z,19.42
2023-02-09T20:00:53.752Z,17.05
2023-02-09T20:03:24.865Z,16.58
2023-02-09T20:05:53.270Z,17.30
2023-02-09T20:08:21.165Z,17.33
2023-02-09T20:10:54.081Z,17.48
2023-02-09T20:13:28.252Z,12.75
2023-02-09T20:15:57.504Z,12.68
2023-02-09T20:18:33.675Z,13.18
2023-02-09T20:21:04.048Z,12.80
2023-02-09T20:23:32.099Z,17.33
2023-02-09T20:26:03.684Z,11.80
2023-02-09T20:31:08.728Z,13.20
2023-02-09T20:33:40.259Z,13.88
2023-02-09T20:39:12.102Z,16.55
2023-02-09T20:42:02.112Z,12.52
2023-02-09T20:45:04.034Z,15.68
2023-02-09T20:50:16.285Z,13.05
2023-02-09T20:52:46.965Z,9.93
2023-02-09T20:55:19.702Z,8.00
2023-02-09T20:57:47.429Z,10.68
2023-02-09T21:00:18.882Z,7.30
2023-02-09T21:05:21.274Z,10.98
2023-02-09T21:07:51.564Z,9.25
2023-02-09T21:10:19.596Z,8.38
2023-02-09T21:12:48.840Z,7.35
2023-02-09T21:15:22.960Z,6.82
2023-02-09T21:18:01.462Z,10.93
2023-02-09T21:20:36.042Z,6.88
2023-02-09T21:23:06.177Z,9.70
2023-02-09T21:25:43.297Z,12.57
2023-02-09T21:28:12.376Z,11.82
2023-02-09T21:30:47.662Z,9.95
2023-02-09T21:33:17.739Z,16.92
2023-02-09T21:35:49.636Z,15.00
2023-02-09T21:38:42.764Z,13.05
2023-02-09T21:41:35.303Z,19.05
2023-02-09T21:44:05.710Z,19.58
2023-02-09T21:46:35.816Z,17.42
2023-02-09T21:49:25.985Z,14.15
2023-02-09T21:52:15.963Z,14.50
2023-02-09T21:54:51.761Z,12.80
2023-02-09T21:57:33.047Z,13.90
2023-02-09T22:00:10.225Z,16.20
2023-02-09T22:02:41.835Z,16.88
2023-02-09T22:05:29.816Z,16.45
2023-02-09T22:08:18.368Z,14.98
2023-02-09T22:10:47.240Z,12.95
2023-02-09T22:13:18.377Z,16.58
2023-02-09T22:15:49.367Z,12.82
2023-02-09T22:18:18.318Z,13.40
2023-02-09T22:20:53.682Z,14.10
2023-02-09T22:23:28.674Z,12.55
2023-02-09T22:26:01.000Z,11.73
2023-02-09T22:28:36.522Z,13.32
2023-02-09T22:31:29.481Z,14.52
2023-02-09T22:33:59.638Z,11.38
2023-02-09T22:36:50.170Z,10.13
2023-02-09T22:39:22.135Z,12.73
2023-02-09T22:42:18.041Z,15.05
2023-02-09T22:45:04.286Z,12.23
2023-02-09T22:47:35.263Z,15.02
2023-02-09T22:50:03.289Z,17.50
2023-02-09T22:52:43.657Z,18.30
2023-02-09T22:55:11.394Z,18.55
2023-02-09T22:57:39.319Z,14.98
2023-02-09T23:00:11.277Z,16.08
2023-02-09T23:02:41.475Z,11.90
2023-02-09T23:05:16.665Z,9.45
2023-02-09T23:07:46.586Z,13.55
2023-02-09T23:10:23.746Z,10.98
2023-02-09T23:13:07.976Z,10.63
2023-02-09T23:15:47.290Z,10.80
2023-02-09T23:18:15.523Z,15.43
2023-02-09T23:20:45.408Z,7.57
2023-02-09T23:23:13.164Z,12.18
2023-02-09T23:25:41.160Z,9.68
2023-02-09T23:28:09.197Z,11.23
2023-02-09T23:30:39.037Z,12.07
2023-02-09T23:33:07.010Z,11.88
2023-02-09T23:35:35.087Z,12.60
2023-02-09T23:38:09.124Z,10.25
2023-02-09T23:40:42.168Z,10.57
2023-02-09T23:43:25.321Z,9.05
2023-02-09T23:45:53.625Z,8.68
2023-02-09T23:48:24.868Z,9.85
2023-02-09T23:50:52.955Z,10.25
2023-02-09T23:53:29.486Z,9.60
2023-02-09T23:56:07.457Z,8.82
2023-02-09T23:58:40.484Z,8.88
